Amsterdam, MO

3:13 PM CST on February 01, 2015 (GMT -0600)
KMOAMSTE2 | Change Station
CLOSE
Current Station
Personal Weather Station
Location: Amsterdam, MO
Elevation: 906 ft
Nearby Weather Stations

Elev 906 ft 38.36 °N, 94.61 °W | Updated 11 seconds ago

Overcast
Overcast
25.9 °F
Feels Like 16 °F
N
10.5
Wind Variable Wind from NNW
Gusts 10.5 mph

Today
High -- | Low -- °F
--% Chance of Precip.
Yesterday
High -- | Low -- °F
Precip. -- in
7:23 AM 5:40 PM
Waxing Gibbous, 96% visible
Pressure 29.93 in
Visibility 1.8 miles
Clouds Overcast 1600 ft
Windchill 16 °F
Dew Point 9 °F
Humidity 48%
Rainfall 0.42 in
Snow Depth Not available.
UV 1 out of 12
Pollen .10 out of 12
Air Quality Not available.
Flu Activity Not available.
SPECI KOJC 012105Z 32020G31KT 1 3/4SM -SN OVC016 M05/M08 A2993 RMK AO2 PK WND 31031/2104 SNB2056 PRESRR P0000 T10501078

More Conditions Fewer Conditions

Pressure 29.93 in
Visibility 1.8 miles
Clouds Overcast 1600 ft
Windchill 16 °F
Dew Point 9 °F
Humidity 48%
Rainfall 0.42 in
Snow Depth Not available.
UV 1 out of 12
Pollen .10 out of 12
Air Quality Not available.
Flu Activity Not available.
SPECI KOJC 012105Z 32020G31KT 1 3/4SM -SN OVC016 M05/M08 A2993 RMK AO2 PK WND 31031/2104 SNB2056 PRESRR P0000 T10501078

More Conditions Fewer Conditions

10-Day Weather Forecast

Almanac

Astronomy

Feb. 01, 2015 Rise Set
Actual Time
Civil Twilight
Nautical Twilight
Astronomical Twilight
Moon
Length of Visible Light
Length of Day
Tomorrow will be .
, % of the Moon is Illuminated

Today's Extremes

State Highs State Lows

Community

WunderPhotos

Upload Photos

1,792,535 photos uploaded!

WunderBlogs® & News

Nearby

Air Quality

  Air Quality AQ Index Pollutant
Not available.

Snow Depth

Station Depth Elevation

Earthquake Activity

City Distance Mag. Time & Date
Minimum magnitude displayed is 2.5.

Coastal Water Temperatures

Place Temperature

Nearby Weather Stations